LFPN 210400Z AUTO 34005KT 9999 OVC011 01/M00 Q1036

ElémentsDécodage
LFPN Station météo située sur l'aérodrome de TOUSSUS-LE-NOBLE
210400Z émis le 21 du mois à 04h00 UTC
AUTO Bulletin édité par un automate
34005KT vent du 340°, 05 noeuds
9999 visibilité horizontale supérieure à 10 Km
OVC011 couverture nuageuse totale (8/8) à 1100 pieds
01/M00 température 01°C, point de rosée 00°C
 soit une humidité relative de 93%
Q1036 la pression au niveau de la mer (QNH) est de 1036 hPa